createdAt,value
2024-02-19T00:02:17.868Z,99.90
2024-02-19T00:04:44.755Z,99.90
2024-02-19T00:07:11.627Z,99.90
2024-02-19T00:09:38.401Z,99.90
2024-02-19T00:12:05.540Z,99.90
2024-02-19T00:14:32.273Z,99.90
2024-02-19T00:16:59.054Z,99.90
2024-02-19T00:19:25.791Z,1.00
2024-02-19T00:21:52.624Z,1.00
2024-02-19T00:24:19.301Z,1.00
2024-02-19T00:26:45.960Z,1.00
2024-02-19T00:29:12.600Z,1.00
2024-02-19T00:31:39.292Z,1.00
2024-02-19T00:34:07.773Z,99.90
2024-02-19T00:36:34.644Z,99.90
2024-02-19T00:39:01.298Z,99.90
2024-02-19T00:41:28.414Z,99.90
2024-02-19T00:43:56.360Z,1.00
2024-02-19T00:46:23.116Z,1.00
2024-02-19T00:48:49.882Z,1.00
2024-02-19T00:51:16.600Z,1.00
2024-02-19T00:53:43.232Z,1.00
2024-02-19T00:56:09.889Z,1.00
2024-02-19T00:58:36.546Z,1.00
2024-02-19T01:01:03.296Z,1.00
2024-02-19T01:03:30.101Z,1.00
2024-02-19T01:05:56.878Z,1.00
2024-02-19T01:08:23.896Z,1.00
2024-02-19T01:10:50.698Z,1.00
2024-02-19T01:13:17.641Z,5.00
2024-02-19T01:15:44.435Z,99.90
2024-02-19T01:18:11.251Z,99.90
2024-02-19T01:20:38.131Z,99.90
2024-02-19T01:23:04.808Z,99.90
2024-02-19T01:25:31.467Z,99.90
2024-02-19T01:27:58.846Z,99.90
2024-02-19T01:30:26.049Z,99.90
2024-02-19T01:32:52.815Z,66.10
2024-02-19T01:35:19.644Z,1.00
2024-02-19T01:37:47.199Z,1.00
2024-02-19T01:40:14.091Z,1.00
2024-02-19T01:42:41.071Z,1.00
2024-02-19T01:45:22.581Z,1.00
2024-02-19T01:47:49.315Z,1.00
2024-02-19T01:50:16.005Z,1.00
2024-02-19T01:52:42.737Z,1.00
2024-02-19T01:55:09.455Z,1.00
2024-02-19T01:57:36.231Z,1.00
2024-02-19T02:00:11.537Z,1.00
2024-02-19T02:02:38.664Z,1.00
2024-02-19T02:05:05.895Z,1.00
2024-02-19T02:07:32.641Z,1.00
2024-02-19T02:10:00.779Z,99.90
2024-02-19T02:12:27.426Z,99.90
2024-02-19T02:14:54.068Z,1.00
2024-02-19T02:17:20.707Z,1.00
2024-02-19T02:19:47.655Z,99.90
2024-02-19T02:22:15.043Z,1.00
2024-02-19T02:24:41.966Z,1.00
2024-02-19T02:27:09.427Z,1.00
2024-02-19T02:29:37.396Z,1.00
2024-02-19T02:32:07.126Z,1.00
2024-02-19T02:34:35.594Z,1.00
2024-02-19T02:37:05.038Z,1.00
2024-02-19T02:39:32.067Z,1.00
2024-02-19T02:41:58.767Z,1.00
2024-02-19T02:44:25.744Z,1.00
2024-02-19T02:46:52.432Z,1.00
2024-02-19T02:49:19.402Z,1.00
2024-02-19T02:51:46.189Z,99.90
2024-02-19T02:54:12.861Z,99.90
2024-02-19T02:56:39.530Z,72.10
2024-02-19T02:59:06.192Z,27.80
2024-02-19T03:01:33.393Z,1.00
2024-02-19T03:04:00.313Z,1.00
2024-02-19T03:06:27.198Z,1.00
2024-02-19T03:08:54.079Z,1.00
2024-02-19T03:11:20.841Z,1.00
2024-02-19T03:13:47.574Z,59.00
2024-02-19T03:16:16.876Z,1.00
2024-02-19T03:18:44.630Z,1.00
2024-02-19T03:21:12.290Z,1.00
2024-02-19T03:23:40.497Z,1.00
2024-02-19T03:26:07.937Z,1.00
2024-02-19T03:28:34.610Z,99.90
2024-02-19T03:31:01.384Z,1.00
2024-02-19T03:33:28.298Z,1.00
2024-02-19T03:35:55.035Z,1.00
2024-02-19T03:38:23.266Z,1.00
2024-02-19T03:40:50.133Z,1.00
2024-02-19T03:43:17.032Z,1.00
2024-02-19T03:45:43.818Z,1.00
2024-02-19T03:48:11.418Z,1.00
2024-02-19T03:50:38.105Z,1.00
2024-02-19T03:53:04.979Z,1.00
2024-02-19T03:55:31.762Z,48.50
2024-02-19T03:57:58.518Z,71.60
2024-02-19T04:00:25.210Z,1.00
2024-02-19T04:02:51.887Z,1.00
2024-02-19T04:05:18.537Z,1.00
2024-02-19T04:07:45.237Z,1.00
2024-02-19T04:10:11.915Z,1.00
2024-02-19T04:12:39.591Z,99.90
2024-02-19T04:15:06.830Z,99.90
2024-02-19T04:17:36.663Z,1.00
2024-02-19T04:20:05.314Z,1.00
2024-02-19T04:22:31.956Z,1.00
2024-02-19T04:24:58.714Z,51.50
2024-02-19T04:27:25.384Z,93.90
2024-02-19T04:29:52.077Z,77.80
2024-02-19T04:32:18.727Z,99.90
2024-02-19T04:34:45.433Z,99.90
2024-02-19T04:37:12.113Z,99.90
2024-02-19T04:39:38.822Z,99.90
2024-02-19T04:42:05.832Z,99.90
2024-02-19T04:44:32.562Z,99.90
2024-02-19T04:46:59.260Z,1.00
2024-02-19T04:49:27.626Z,1.00
2024-02-19T04:51:54.417Z,1.00
2024-02-19T04:54:21.905Z,1.00
2024-02-19T04:56:48.574Z,1.00
2024-02-19T04:59:15.301Z,1.00
2024-02-19T05:01:42.067Z,1.00
2024-02-19T05:04:09.149Z,99.90
2024-02-19T05:06:35.960Z,99.90
2024-02-19T05:09:03.594Z,99.90
2024-02-19T05:11:30.917Z,99.90
2024-02-19T05:13:57.653Z,99.90
2024-02-19T05:16:25.133Z,99.90
2024-02-19T05:18:51.978Z,1.00
2024-02-19T05:21:19.357Z,1.20
2024-02-19T05:23:46.205Z,18.40
2024-02-19T05:26:12.888Z,57.30
2024-02-19T05:28:39.560Z,93.50
2024-02-19T05:31:06.925Z,50.40
2024-02-19T05:33:33.662Z,99.90
2024-02-19T05:36:00.744Z,60.50
2024-02-19T05:38:27.441Z,13.70
2024-02-19T05:40:54.103Z,1.00
2024-02-19T05:43:21.210Z,1.00
2024-02-19T05:45:47.999Z,1.00
2024-02-19T05:48:14.756Z,1.00
2024-02-19T05:50:41.471Z,1.00
2024-02-19T05:53:08.942Z,1.00
2024-02-19T05:55:35.698Z,1.00
2024-02-19T05:58:02.394Z,1.00
2024-02-19T06:00:30.390Z,1.00
2024-02-19T06:02:57.304Z,1.00
2024-02-19T06:05:24.324Z,1.00
2024-02-19T06:07:51.321Z,1.00
2024-02-19T06:10:18.271Z,1.00
2024-02-19T06:12:45.142Z,1.00
2024-02-19T06:15:11.822Z,1.00
2024-02-19T06:17:38.573Z,1.00
2024-02-19T06:20:05.712Z,1.00
2024-02-19T06:22:32.501Z,1.00
2024-02-19T06:24:59.336Z,1.00
2024-02-19T06:27:26.075Z,5.90
2024-02-19T06:29:52.767Z,28.50
2024-02-19T06:32:19.469Z,58.20
2024-02-19T06:34:46.277Z,99.90
2024-02-19T06:37:13.167Z,99.90
2024-02-19T06:39:42.055Z,99.90
2024-02-19T06:42:08.756Z,99.90
2024-02-19T06:44:35.461Z,99.90
2024-02-19T06:47:02.236Z,99.90
2024-02-19T06:49:29.193Z,99.90
2024-02-19T06:51:55.950Z,99.90
2024-02-19T06:54:22.656Z,99.90
2024-02-19T06:56:49.651Z,99.90
2024-02-19T06:59:16.311Z,99.90
2024-02-19T07:01:43.052Z,99.90
2024-02-19T07:04:10.989Z,99.90
2024-02-19T07:06:38.372Z,99.90
2024-02-19T07:09:05.147Z,99.90
2024-02-19T07:11:32.011Z,99.90
2024-02-19T07:13:58.694Z,99.90
2024-02-19T07:16:25.547Z,99.90
2024-02-19T07:18:52.442Z,99.90
2024-02-19T07:21:19.296Z,99.90
2024-02-19T07:23:46.029Z,99.90
2024-02-19T07:26:12.820Z,99.90
2024-02-19T07:28:39.549Z,99.90
2024-02-19T07:31:06.347Z,1.00
2024-02-19T07:33:34.925Z,1.00
2024-02-19T07:36:01.622Z,1.00
2024-02-19T07:38:28.329Z,1.00
2024-02-19T07:40:54.973Z,1.00
2024-02-19T07:43:21.635Z,99.90
2024-02-19T07:45:48.415Z,1.00
2024-02-19T07:48:15.129Z,1.00
2024-02-19T07:50:42.697Z,7.30
2024-02-19T07:53:09.356Z,1.00
2024-02-19T07:55:36.838Z,1.00
2024-02-19T07:58:03.570Z,1.00
2024-02-19T08:00:30.269Z,1.00
2024-02-19T08:02:56.974Z,1.00
2024-02-19T08:05:23.802Z,1.00
2024-02-19T08:07:51.170Z,1.00
2024-02-19T08:10:17.987Z,1.00
2024-02-19T08:12:45.005Z,1.00
2024-02-19T08:15:11.935Z,1.00
2024-02-19T08:17:38.786Z,1.00
2024-02-19T08:20:06.297Z,1.00
2024-02-19T08:22:33.070Z,1.00
2024-02-19T08:24:59.827Z,1.00
2024-02-19T08:27:28.726Z,1.00
2024-02-19T08:29:55.466Z,1.00
2024-02-19T08:32:22.164Z,1.00
2024-02-19T08:34:48.920Z,1.00
2024-02-19T08:37:19.469Z,26.20
2024-02-19T08:39:47.546Z,66.80
2024-02-19T08:42:14.279Z,99.90
2024-02-19T08:44:40.926Z,99.90
2024-02-19T08:47:09.106Z,99.90
2024-02-19T08:49:36.052Z,99.90
2024-02-19T08:52:03.268Z,99.90
2024-02-19T08:54:30.170Z,99.90
2024-02-19T08:56:56.927Z,60.30
2024-02-19T08:59:23.580Z,16.10
2024-02-19T09:01:50.352Z,1.00
2024-02-19T09:04:17.205Z,1.00
2024-02-19T09:06:44.558Z,1.00
2024-02-19T09:09:11.584Z,1.00
2024-02-19T09:11:38.312Z,1.00
2024-02-19T09:14:05.549Z,1.00
2024-02-19T09:16:35.310Z,1.00
2024-02-19T09:19:06.761Z,1.00
2024-02-19T09:21:34.001Z,1.00
2024-02-19T09:24:00.695Z,1.00
2024-02-19T09:26:27.352Z,1.00
2024-02-19T09:28:53.993Z,1.00
2024-02-19T09:31:24.284Z,1.00
2024-02-19T09:33:51.190Z,1.00
2024-02-19T09:36:18.199Z,1.00
2024-02-19T09:38:46.321Z,1.00
2024-02-19T09:41:13.027Z,1.00
2024-02-19T09:43:40.461Z,1.00
2024-02-19T09:46:10.556Z,1.00
2024-02-19T09:48:37.372Z,1.00
2024-02-19T09:51:04.478Z,1.00
2024-02-19T09:53:33.987Z,1.00
2024-02-19T09:56:00.743Z,1.00
2024-02-19T09:58:27.526Z,1.00
2024-02-19T10:00:54.403Z,1.00
2024-02-19T10:03:21.173Z,1.00
2024-02-19T10:05:49.090Z,1.00
2024-02-19T10:08:17.055Z,1.00
2024-02-19T10:10:46.618Z,1.00
2024-02-19T10:13:14.128Z,1.00
2024-02-19T10:15:40.851Z,1.00
2024-02-19T10:18:15.940Z,1.00
2024-02-19T10:20:47.192Z,1.00
2024-02-19T10:23:14.811Z,1.00
2024-02-19T10:25:42.103Z,1.00
2024-02-19T10:28:09.561Z,1.00
2024-02-19T10:30:36.779Z,1.00
2024-02-19T10:33:03.710Z,1.00
2024-02-19T10:35:31.937Z,1.00
2024-02-19T10:38:00.672Z,1.00
2024-02-19T10:40:27.961Z,1.00
2024-02-19T10:42:54.705Z,1.00
2024-02-19T10:45:22.556Z,1.00
2024-02-19T10:47:58.472Z,1.00
2024-02-19T10:50:25.192Z,1.00
2024-02-19T10:52:52.645Z,1.00
2024-02-19T10:57:55.914Z,1.00
2024-02-19T11:00:26.723Z,1.00
2024-02-19T11:03:06.158Z,1.00
2024-02-19T11:05:36.372Z,1.00
2024-02-19T11:08:03.062Z,1.00
2024-02-19T11:10:42.386Z,1.00
2024-02-19T11:13:09.622Z,1.00
2024-02-19T11:15:43.300Z,1.00
2024-02-19T11:18:11.434Z,1.00
2024-02-19T11:20:39.067Z,1.00
2024-02-19T11:23:05.751Z,1.00
2024-02-19T11:25:32.562Z,1.00
2024-02-19T11:28:00.012Z,1.00
2024-02-19T11:30:27.121Z,1.00
2024-02-19T11:33:03.500Z,1.00
2024-02-19T11:35:33.404Z,1.00
2024-02-19T11:38:02.296Z,1.00
2024-02-19T11:40:32.676Z,1.00
2024-02-19T11:43:00.940Z,1.00
2024-02-19T11:45:28.669Z,1.00
2024-02-19T11:47:55.488Z,1.00
2024-02-19T11:50:26.378Z,1.00
2024-02-19T11:52:55.126Z,1.00
2024-02-19T11:55:22.546Z,1.00
2024-02-19T11:57:49.403Z,1.00
2024-02-19T12:00:16.318Z,1.00
2024-02-19T12:02:46.987Z,1.00
2024-02-19T12:05:13.955Z,26.90
2024-02-19T12:07:40.842Z,73.80
2024-02-19T12:10:10.363Z,78.30
2024-02-19T12:12:40.663Z,55.60
2024-02-19T12:15:16.457Z,22.60
2024-02-19T12:17:44.175Z,59.40
2024-02-19T12:20:14.152Z,35.70
2024-02-19T12:22:44.073Z,18.20
2024-02-19T12:25:11.868Z,2.10
2024-02-19T12:27:38.583Z,15.40
2024-02-19T12:30:06.534Z,13.40
2024-02-19T12:32:33.356Z,68.50
2024-02-19T12:35:00.371Z,76.10
2024-02-19T12:37:28.261Z,67.00
2024-02-19T12:39:54.992Z,99.90
2024-02-19T12:42:23.233Z,99.90
2024-02-19T12:44:49.905Z,99.90
2024-02-19T12:47:16.597Z,62.10
2024-02-19T12:49:43.428Z,96.00
2024-02-19T12:52:11.391Z,88.50
2024-02-19T12:54:38.291Z,84.40
2024-02-19T12:57:06.967Z,86.80
2024-02-19T12:59:33.706Z,45.60
2024-02-19T13:02:00.622Z,47.90
2024-02-19T13:04:28.139Z,46.20
2024-02-19T13:06:57.060Z,10.90
2024-02-19T13:09:25.945Z,1.00
2024-02-19T13:11:52.716Z,1.00
2024-02-19T13:14:19.464Z,1.00
2024-02-19T13:16:52.097Z,1.00
2024-02-19T13:19:21.795Z,1.00
2024-02-19T13:21:48.632Z,1.00
2024-02-19T13:24:15.604Z,1.00
2024-02-19T13:26:42.272Z,1.00
2024-02-19T13:29:09.788Z,1.00
2024-02-19T13:31:43.177Z,1.00
2024-02-19T13:34:10.380Z,1.00
2024-02-19T13:36:38.525Z,1.00
2024-02-19T13:39:07.321Z,1.00
2024-02-19T13:41:34.183Z,1.00
2024-02-19T13:44:00.871Z,1.00
2024-02-19T13:46:27.738Z,1.00
2024-02-19T13:49:00.876Z,1.00
2024-02-19T13:51:27.992Z,1.00
2024-02-19T13:53:54.871Z,1.00
2024-02-19T13:56:21.533Z,1.00
2024-02-19T13:58:48.530Z,1.00
2024-02-19T14:01:15.549Z,1.00
2024-02-19T14:03:42.380Z,1.00
2024-02-19T14:06:09.256Z,1.00
2024-02-19T14:08:35.989Z,1.00
2024-02-19T14:11:02.704Z,1.00
2024-02-19T14:13:29.801Z,1.00
2024-02-19T14:15:57.332Z,1.00
2024-02-19T14:18:26.267Z,1.00
2024-02-19T14:20:53.051Z,1.00
2024-02-19T14:23:19.792Z,1.00
2024-02-19T14:25:50.491Z,1.00
2024-02-19T14:28:17.621Z,1.00
2024-02-19T14:30:44.477Z,1.00
2024-02-19T14:33:11.354Z,1.00
2024-02-19T14:35:38.839Z,1.00
2024-02-19T14:38:07.695Z,1.00
2024-02-19T14:40:36.499Z,1.00
2024-02-19T14:43:03.229Z,1.00
2024-02-19T14:45:30.053Z,1.00
2024-02-19T14:47:56.809Z,1.00
2024-02-19T14:50:23.694Z,1.00
2024-02-19T14:52:50.769Z,1.00
2024-02-19T14:55:17.712Z,1.00
2024-02-19T14:57:46.452Z,1.00
2024-02-19T15:00:18.189Z,1.00
2024-02-19T15:02:45.946Z,1.00
2024-02-19T15:05:12.917Z,1.00
2024-02-19T15:07:42.687Z,1.00
2024-02-19T15:10:10.262Z,1.00
2024-02-19T15:12:37.339Z,1.00
2024-02-19T15:15:07.055Z,1.00
2024-02-19T15:17:35.065Z,1.00
2024-02-19T15:20:02.701Z,1.00
2024-02-19T15:22:29.514Z,1.00
2024-02-19T15:24:56.280Z,1.00
2024-02-19T15:27:27.179Z,1.00
2024-02-19T15:29:54.727Z,1.00
2024-02-19T15:32:23.457Z,1.00
2024-02-19T15:34:51.038Z,1.00
2024-02-19T15:37:18.747Z,1.00
2024-02-19T15:39:45.684Z,1.00
2024-02-19T15:42:12.578Z,1.00
2024-02-19T15:44:39.296Z,1.00
2024-02-19T15:47:06.486Z,1.00
2024-02-19T15:49:33.360Z,1.00
2024-02-19T15:52:00.552Z,1.00
2024-02-19T15:54:29.266Z,1.00
2024-02-19T15:56:55.961Z,1.00
2024-02-19T15:59:22.691Z,1.00
2024-02-19T16:01:49.511Z,1.00
2024-02-19T16:04:16.409Z,1.00
2024-02-19T16:06:44.145Z,1.00
2024-02-19T16:09:12.511Z,1.00
2024-02-19T16:11:39.470Z,1.00
2024-02-19T16:14:06.598Z,1.00
2024-02-19T16:16:33.635Z,1.00
2024-02-19T16:19:02.083Z,1.00
2024-02-19T16:21:28.984Z,1.00
2024-02-19T16:23:55.926Z,1.00
2024-02-19T16:26:22.770Z,1.00
2024-02-19T16:28:51.082Z,1.00
2024-02-19T16:31:20.704Z,1.00
2024-02-19T16:33:47.728Z,1.00
2024-02-19T16:36:14.496Z,1.00
2024-02-19T16:38:43.996Z,1.00
2024-02-19T16:41:10.694Z,1.00
2024-02-19T16:43:37.505Z,1.00
2024-02-19T16:46:04.610Z,1.00
2024-02-19T16:48:38.074Z,1.00
2024-02-19T16:51:10.061Z,1.00
2024-02-19T16:53:36.711Z,1.00
2024-02-19T16:56:03.753Z,1.00
2024-02-19T16:58:33.468Z,1.00
2024-02-19T17:01:03.347Z,1.00
2024-02-19T17:03:30.551Z,1.00
2024-02-19T17:05:57.781Z,1.00
2024-02-19T17:08:28.139Z,1.00
2024-02-19T17:10:56.000Z,14.10
2024-02-19T17:13:23.370Z,32.70
2024-02-19T17:15:50.173Z,39.10
2024-02-19T17:18:17.747Z,32.70
2024-02-19T17:20:44.659Z,33.50
2024-02-19T17:23:18.981Z,54.50
2024-02-19T17:25:48.957Z,75.00
2024-02-19T17:28:16.595Z,68.40
2024-02-19T17:30:45.129Z,64.90
2024-02-19T17:33:12.043Z,49.60
2024-02-19T17:35:41.656Z,51.00
2024-02-19T17:38:10.910Z,73.10
2024-02-19T17:40:37.910Z,97.10
2024-02-19T17:43:05.662Z,99.90
2024-02-19T17:45:32.530Z,99.90
2024-02-19T17:47:59.395Z,99.90
2024-02-19T17:50:26.259Z,99.90
2024-02-19T17:52:52.954Z,99.90
2024-02-19T17:55:19.629Z,99.90
2024-02-19T17:57:48.577Z,99.90
2024-02-19T18:00:15.611Z,99.90
2024-02-19T18:02:42.266Z,99.90
2024-02-19T18:05:09.224Z,99.90
2024-02-19T18:07:36.057Z,99.90
2024-02-19T18:10:04.855Z,99.90
2024-02-19T18:12:32.227Z,99.90
2024-02-19T18:14:59.904Z,99.90
2024-02-19T18:17:27.631Z,99.90
2024-02-19T18:19:55.539Z,99.90
2024-02-19T18:22:22.800Z,99.90
2024-02-19T18:24:51.661Z,99.90
2024-02-19T18:27:18.720Z,99.90
2024-02-19T18:29:45.468Z,99.90
2024-02-19T18:32:14.035Z,99.90
2024-02-19T18:34:42.326Z,99.90
2024-02-19T18:37:09.344Z,99.90
2024-02-19T18:39:36.093Z,99.90
2024-02-19T18:42:04.677Z,99.90
2024-02-19T18:44:31.572Z,99.90
2024-02-19T18:47:01.371Z,99.90
2024-02-19T18:49:32.627Z,99.90
2024-02-19T18:52:00.096Z,99.90
2024-02-19T18:54:32.284Z,99.90
2024-02-19T18:57:03.355Z,1.00
2024-02-19T18:59:31.672Z,1.00
2024-02-19T19:01:59.100Z,1.00
2024-02-19T19:04:25.983Z,1.00
2024-02-19T19:06:52.887Z,1.00
2024-02-19T19:09:19.608Z,1.00
2024-02-19T19:11:46.284Z,1.00
2024-02-19T19:14:15.983Z,69.20
2024-02-19T19:16:43.078Z,99.90
2024-02-19T19:19:10.042Z,99.90
2024-02-19T19:21:38.877Z,99.90
2024-02-19T19:24:07.522Z,99.90
2024-02-19T19:26:35.206Z,99.90
2024-02-19T19:29:02.356Z,99.90
2024-02-19T19:31:29.260Z,99.90
2024-02-19T19:33:56.361Z,99.90
2024-02-19T19:36:23.136Z,99.90
2024-02-19T19:38:51.180Z,99.90
2024-02-19T19:41:17.844Z,55.30
2024-02-19T19:43:44.527Z,75.00
2024-02-19T19:46:12.632Z,9.20
2024-02-19T19:48:39.505Z,1.00
2024-02-19T19:51:06.230Z,14.40
2024-02-19T19:53:32.923Z,67.90
2024-02-19T19:55:59.773Z,99.90
2024-02-19T19:58:32.060Z,99.90
2024-02-19T20:01:00.370Z,99.90
2024-02-19T20:03:27.383Z,99.90
2024-02-19T20:05:54.373Z,1.00
2024-02-19T20:08:21.331Z,1.00
2024-02-19T20:10:48.418Z,1.00
2024-02-19T20:13:15.559Z,1.00
2024-02-19T20:15:42.503Z,1.00
2024-02-19T20:18:10.025Z,1.00
2024-02-19T20:20:37.031Z,1.00
2024-02-19T20:23:03.968Z,1.00
2024-02-19T20:25:31.579Z,25.40
2024-02-19T20:28:05.409Z,16.50
2024-02-19T20:30:32.244Z,16.50
2024-02-19T20:32:59.030Z,1.00
2024-02-19T20:35:27.034Z,1.00
2024-02-19T20:37:53.833Z,1.00
2024-02-19T20:40:20.593Z,1.00
2024-02-19T20:42:53.241Z,1.00
2024-02-19T20:45:20.064Z,1.00
2024-02-19T20:47:46.929Z,99.90
2024-02-19T20:50:14.484Z,99.90
2024-02-19T20:52:46.334Z,99.90
2024-02-19T20:55:13.380Z,99.90
2024-02-19T20:57:40.450Z,99.90
2024-02-19T21:00:07.809Z,99.90
2024-02-19T21:02:34.589Z,99.90
2024-02-19T21:05:01.572Z,99.90
2024-02-19T21:07:28.869Z,99.90
2024-02-19T21:09:58.273Z,37.10
2024-02-19T21:12:25.196Z,8.20
2024-02-19T21:14:51.870Z,1.00
2024-02-19T21:17:18.555Z,4.70
2024-02-19T21:19:45.326Z,9.10
2024-02-19T21:22:12.318Z,27.50
2024-02-19T21:24:39.260Z,70.40
2024-02-19T21:27:06.076Z,84.90
2024-02-19T21:29:32.745Z,99.90
2024-02-19T21:31:59.457Z,99.90
2024-02-19T21:34:26.366Z,99.90
2024-02-19T21:36:57.226Z,99.90
2024-02-19T21:39:24.009Z,99.90
2024-02-19T21:41:50.788Z,99.90
2024-02-19T21:44:17.457Z,99.90
2024-02-19T21:46:44.214Z,99.90
2024-02-19T21:49:11.064Z,99.90
2024-02-19T21:51:41.740Z,99.90
2024-02-19T21:54:09.057Z,1.00
2024-02-19T21:56:35.835Z,1.00
2024-02-19T21:59:02.557Z,1.00
2024-02-19T22:01:30.037Z,1.00
2024-02-19T22:03:57.398Z,1.00
2024-02-19T22:06:24.465Z,1.00
2024-02-19T22:08:52.416Z,1.00
2024-02-19T22:11:20.801Z,25.80
2024-02-19T22:13:50.783Z,99.90
2024-02-19T22:16:17.560Z,89.10
2024-02-19T22:18:45.373Z,7.80
2024-02-19T22:21:12.300Z,1.00
2024-02-19T22:23:39.270Z,1.00
2024-02-19T22:26:05.935Z,1.00
2024-02-19T22:28:32.690Z,1.00
2024-02-19T22:30:59.512Z,1.00
2024-02-19T22:33:29.201Z,1.00
2024-02-19T22:35:55.869Z,1.00
2024-02-19T22:38:22.525Z,1.00
2024-02-19T22:40:49.229Z,1.00
2024-02-19T22:43:16.006Z,1.00
2024-02-19T22:45:42.661Z,1.00
2024-02-19T22:48:12.221Z,1.00
2024-02-19T22:50:39.239Z,1.00
2024-02-19T22:53:06.094Z,1.00
2024-02-19T22:55:33.002Z,99.90
2024-02-19T22:57:59.849Z,99.90
2024-02-19T23:00:40.800Z,99.90
2024-02-19T23:03:07.656Z,99.90
2024-02-19T23:05:34.490Z,99.90
2024-02-19T23:08:01.810Z,99.90
2024-02-19T23:10:28.905Z,99.90
2024-02-19T23:12:55.630Z,99.90
2024-02-19T23:15:28.295Z,99.90
2024-02-19T23:17:55.246Z,99.90
2024-02-19T23:20:22.130Z,99.90
2024-02-19T23:22:48.928Z,99.90
2024-02-19T23:25:15.792Z,99.90
2024-02-19T23:27:42.509Z,90.60
2024-02-19T23:30:09.498Z,99.90
2024-02-19T23:32:37.004Z,77.30
2024-02-19T23:35:05.377Z,90.00
2024-02-19T23:37:32.933Z,99.70
2024-02-19T23:39:59.936Z,48.90
2024-02-19T23:42:27.315Z,18.50
2024-02-19T23:44:54.080Z,19.90
2024-02-19T23:47:20.836Z,13.00
2024-02-19T23:49:47.867Z,1.00
2024-02-19T23:52:14.773Z,1.00
2024-02-19T23:54:41.707Z,1.00
2024-02-19T23:57:08.734Z,1.00
2024-02-19T23:59:35.550Z,1.00
